createdAt,value
2022-08-03T00:02:17.733Z,17.87
2022-08-03T00:04:45.152Z,17.87
2022-08-03T00:07:11.943Z,17.86
2022-08-03T00:09:38.683Z,17.83
2022-08-03T00:12:08.785Z,17.87
2022-08-03T00:14:35.934Z,17.83
2022-08-03T00:17:03.476Z,17.79
2022-08-03T00:19:30.407Z,17.83
2022-08-03T00:21:57.162Z,17.87
2022-08-03T00:24:23.982Z,17.86
2022-08-03T00:26:50.909Z,17.81
2022-08-03T00:29:17.831Z,17.68
2022-08-03T00:31:52.393Z,17.63
2022-08-03T00:34:36.627Z,17.66
2022-08-03T00:37:07.437Z,17.60
2022-08-03T00:39:34.497Z,17.56
2022-08-03T00:42:06.268Z,17.56
2022-08-03T00:44:41.189Z,17.62
2022-08-03T00:47:10.448Z,17.64
2022-08-03T00:49:41.103Z,17.62
2022-08-03T00:52:11.201Z,17.56
2022-08-03T00:54:39.097Z,17.52
2022-08-03T00:57:07.254Z,17.52
2022-08-03T00:59:34.647Z,17.52
2022-08-03T01:02:01.582Z,17.54
2022-08-03T01:04:28.465Z,17.53
2022-08-03T01:07:11.391Z,17.52
2022-08-03T01:10:03.334Z,17.57
2022-08-03T01:12:58.047Z,17.59
2022-08-03T01:15:33.656Z,17.62
2022-08-03T01:18:25.501Z,17.62
2022-08-03T01:20:58.811Z,17.65
2022-08-03T01:24:06.128Z,17.64
2022-08-03T01:26:45.398Z,17.63
2022-08-03T01:29:49.820Z,17.64
2022-08-03T01:33:00.980Z,17.68
2022-08-03T01:35:38.637Z,17.67
2022-08-03T01:38:42.098Z,17.67
2022-08-03T01:41:20.538Z,17.69
2022-08-03T01:43:59.068Z,17.68
2022-08-03T01:46:40.564Z,17.70
2022-08-03T01:49:18.296Z,17.69
2022-08-03T01:52:03.332Z,17.69
2022-08-03T01:54:40.872Z,17.71
2022-08-03T01:57:09.701Z,17.75
2022-08-03T01:59:40.550Z,17.74
2022-08-03T02:02:29.116Z,17.72
2022-08-03T02:05:01.571Z,17.77
2022-08-03T02:07:32.081Z,17.70
2022-08-03T02:10:03.030Z,17.64
2022-08-03T02:12:33.083Z,17.67
2022-08-03T02:15:02.292Z,17.67
2022-08-03T02:17:39.362Z,17.72
2022-08-03T02:20:12.202Z,17.78
2022-08-03T02:22:44.931Z,17.75
2022-08-03T02:25:14.468Z,17.77
2022-08-03T02:28:01.941Z,17.71
2022-08-03T02:30:41.110Z,17.60
2022-08-03T02:33:24.817Z,17.62
2022-08-03T02:35:54.286Z,17.74
2022-08-03T02:38:29.024Z,17.77
2022-08-03T02:40:58.656Z,17.78
2022-08-03T02:43:28.737Z,17.78
2022-08-03T02:46:13.716Z,17.77
2022-08-03T02:48:43.172Z,17.79
2022-08-03T02:51:10.792Z,17.79
2022-08-03T02:53:40.463Z,17.75
2022-08-03T02:56:09.925Z,17.68
2022-08-03T02:58:40.288Z,17.66
2022-08-03T03:01:07.806Z,17.75
2022-08-03T03:03:39.957Z,17.74
2022-08-03T03:06:13.629Z,17.71
2022-08-03T03:08:42.698Z,17.72
2022-08-03T03:11:11.358Z,17.76
2022-08-03T03:13:41.679Z,17.77
2022-08-03T03:16:10.122Z,17.76
2022-08-03T03:18:38.561Z,17.77
2022-08-03T03:21:09.980Z,17.73
2022-08-03T03:23:40.013Z,17.69
2022-08-03T03:26:08.246Z,17.68
2022-08-03T03:28:39.696Z,17.67
2022-08-03T03:31:08.491Z,17.64
2022-08-03T03:33:37.308Z,17.56
2022-08-03T03:36:07.294Z,17.48
2022-08-03T03:38:34.330Z,17.46
2022-08-03T03:41:02.383Z,17.47
2022-08-03T03:43:29.630Z,17.44
2022-08-03T03:45:58.662Z,17.42
2022-08-03T03:48:26.428Z,17.41
2022-08-03T03:50:53.653Z,17.37
2022-08-03T03:53:20.536Z,17.33
2022-08-03T03:55:57.918Z,17.34
2022-08-03T03:58:32.403Z,17.33
2022-08-03T04:01:00.436Z,17.31
2022-08-03T04:03:27.674Z,17.34
2022-08-03T04:06:13.049Z,17.34
2022-08-03T04:08:59.460Z,17.31
2022-08-03T04:11:49.008Z,17.36
2022-08-03T04:14:32.538Z,17.44
2022-08-03T04:17:04.945Z,17.42
2022-08-03T04:19:37.789Z,17.47
2022-08-03T04:22:11.333Z,17.53
2022-08-03T04:24:53.701Z,17.59
2022-08-03T04:27:29.161Z,17.64
2022-08-03T04:29:59.384Z,17.66
2022-08-03T04:32:28.746Z,17.72
2022-08-03T04:34:56.265Z,17.76
2022-08-03T04:37:39.588Z,17.80
2022-08-03T04:40:13.349Z,17.85
2022-08-03T04:42:42.029Z,17.88
2022-08-03T04:45:14.902Z,17.87
2022-08-03T04:47:42.738Z,17.86
2022-08-03T04:50:13.516Z,17.78
2022-08-03T04:52:42.160Z,17.75
2022-08-03T04:55:09.744Z,17.75
2022-08-03T04:57:36.667Z,17.80
2022-08-03T05:00:06.565Z,17.85
2022-08-03T05:02:33.650Z,17.90
2022-08-03T05:05:00.745Z,17.94
2022-08-03T05:07:34.071Z,17.98
2022-08-03T05:10:16.109Z,18.05
2022-08-03T05:12:45.871Z,18.10
2022-08-03T05:15:13.178Z,18.15
2022-08-03T05:17:40.316Z,18.20
2022-08-03T05:20:08.124Z,18.23
2022-08-03T05:22:34.876Z,18.30
2022-08-03T05:25:02.456Z,18.41
2022-08-03T05:27:29.628Z,18.47
2022-08-03T05:29:56.637Z,18.43
2022-08-03T05:32:43.409Z,18.67
2022-08-03T05:36:00.477Z,18.91
2022-08-03T05:37:57.071Z,19.13
2022-08-03T05:40:24.854Z,19.36
2022-08-03T05:42:54.067Z,19.59
2022-08-03T05:45:23.278Z,19.75
2022-08-03T05:47:53.662Z,19.99
2022-08-03T05:50:21.066Z,20.21
2022-08-03T05:52:47.858Z,20.32
2022-08-03T05:55:16.024Z,20.51
2022-08-03T05:57:43.731Z,20.76
2022-08-03T06:00:12.817Z,21.06
2022-08-03T06:02:43.507Z,21.32
2022-08-03T06:05:10.952Z,21.57
2022-08-03T06:07:37.982Z,21.76
2022-08-03T06:10:35.712Z,21.91
2022-08-03T06:12:52.776Z,22.15
2022-08-03T06:15:20.891Z,22.35
2022-08-03T06:17:52.335Z,22.41
2022-08-03T06:20:21.480Z,22.61
2022-08-03T06:23:00.189Z,22.89
2022-08-03T06:25:28.951Z,23.13
2022-08-03T06:27:55.852Z,23.34
2022-08-03T06:30:22.640Z,23.47
2022-08-03T06:32:52.078Z,23.65
2022-08-03T06:35:20.014Z,23.88
2022-08-03T06:37:52.041Z,23.75
2022-08-03T06:40:32.134Z,23.78
2022-08-03T06:43:01.754Z,23.97
2022-08-03T06:45:31.758Z,24.39
2022-08-03T06:48:06.119Z,24.67
2022-08-03T06:50:35.485Z,24.53
2022-08-03T06:53:04.377Z,24.45
2022-08-03T06:55:32.473Z,24.88
2022-08-03T06:58:00.012Z,25.19
2022-08-03T07:00:31.278Z,25.53
2022-08-03T07:02:58.569Z,25.48
2022-08-03T07:05:25.863Z,25.42
2022-08-03T07:07:57.646Z,25.33
2022-08-03T07:10:25.094Z,25.12
2022-08-03T07:12:55.660Z,25.37
2022-08-03T07:15:54.631Z,26.10
2022-08-03T07:18:10.588Z,25.58
2022-08-03T07:20:37.381Z,25.60
2022-08-03T07:23:04.167Z,25.76
2022-08-03T07:25:30.905Z,25.98
2022-08-03T07:27:57.713Z,25.85
2022-08-03T07:30:25.240Z,25.86
2022-08-03T07:32:51.938Z,26.40
2022-08-03T07:35:25.117Z,26.92
2022-08-03T07:37:54.903Z,27.31
2022-08-03T07:40:22.975Z,27.35
2022-08-03T07:42:53.365Z,27.56
2022-08-03T07:45:23.493Z,27.70
2022-08-03T07:47:53.190Z,27.95
2022-08-03T07:50:22.543Z,27.53
2022-08-03T07:52:52.165Z,27.81
2022-08-03T07:55:22.046Z,27.99
2022-08-03T07:58:16.536Z,28.01
2022-08-03T08:00:46.213Z,28.75
2022-08-03T08:03:13.476Z,28.60
2022-08-03T08:05:40.266Z,27.87
2022-08-03T08:08:07.511Z,28.35
2022-08-03T08:10:35.247Z,28.57
2022-08-03T08:13:03.483Z,28.50
2022-08-03T08:15:31.650Z,28.42
2022-08-03T08:18:01.488Z,27.75
2022-08-03T08:20:37.970Z,27.79
2022-08-03T08:23:28.377Z,28.66
2022-08-03T08:25:56.229Z,28.47
2022-08-03T08:28:30.205Z,28.62
2022-08-03T08:31:00.042Z,28.82
2022-08-03T08:33:37.331Z,28.89
2022-08-03T08:36:14.736Z,29.39
2022-08-03T08:38:42.732Z,29.40
2022-08-03T08:41:12.081Z,29.32
2022-08-03T08:43:39.220Z,28.68
2022-08-03T08:46:10.227Z,28.98
2022-08-03T08:48:44.192Z,28.52
2022-08-03T08:51:13.727Z,29.26
2022-08-03T08:53:47.819Z,29.57
2022-08-03T08:56:16.975Z,29.98
2022-08-03T08:58:54.302Z,30.03
2022-08-03T09:01:22.022Z,29.77
2022-08-03T09:03:50.139Z,30.21
2022-08-03T09:06:17.439Z,29.60
2022-08-03T09:08:44.190Z,30.13
2022-08-03T09:11:12.013Z,29.97
2022-08-03T09:13:40.218Z,30.35
2022-08-03T09:16:22.123Z,30.70
2022-08-03T09:18:54.237Z,29.94
2022-08-03T09:21:32.924Z,30.30
2022-08-03T09:24:05.321Z,29.98
2022-08-03T09:26:37.968Z,30.13
2022-08-03T09:29:14.047Z,30.49
2022-08-03T09:31:46.974Z,30.36
2022-08-03T09:34:17.147Z,30.29
2022-08-03T09:36:47.783Z,30.09
2022-08-03T09:39:40.811Z,30.25
2022-08-03T09:42:19.324Z,30.09
2022-08-03T09:44:53.055Z,30.37
2022-08-03T09:47:44.920Z,30.53
2022-08-03T09:50:13.032Z,30.87
2022-08-03T09:52:52.047Z,30.27
2022-08-03T09:56:34.644Z,30.33
2022-08-03T09:58:10.585Z,30.85
2022-08-03T10:01:06.253Z,30.62
2022-08-03T10:04:02.695Z,30.36
2022-08-03T10:06:28.844Z,30.96
2022-08-03T10:09:13.946Z,30.48
2022-08-03T10:11:43.009Z,30.68
2022-08-03T10:14:19.358Z,30.93
2022-08-03T10:16:48.522Z,31.17
2022-08-03T10:19:16.349Z,31.26
2022-08-03T10:21:53.318Z,30.93
2022-08-03T10:24:27.223Z,30.86
2022-08-03T10:27:04.637Z,31.22
2022-08-03T10:29:39.332Z,31.00
2022-08-03T10:32:35.037Z,31.47
2022-08-03T10:35:18.966Z,31.82
2022-08-03T10:38:00.019Z,31.28
2022-08-03T10:40:48.151Z,30.84
2022-08-03T10:43:50.587Z,31.37
2022-08-03T10:46:21.359Z,31.01
2022-08-03T10:48:52.519Z,31.29
2022-08-03T10:51:21.484Z,31.14
2022-08-03T10:53:55.192Z,31.33
2022-08-03T10:56:54.446Z,31.49
2022-08-03T10:59:46.330Z,31.30
2022-08-03T11:02:17.964Z,31.10
2022-08-03T11:04:45.262Z,31.67
2022-08-03T11:07:23.830Z,31.62
2022-08-03T11:09:56.622Z,31.67
2022-08-03T11:12:31.184Z,31.67
2022-08-03T11:15:09.665Z,31.63
2022-08-03T11:17:46.136Z,31.71
2022-08-03T11:20:50.462Z,31.71
2022-08-03T11:24:02.151Z,31.54
2022-08-03T11:26:14.374Z,31.58
2022-08-03T11:28:44.788Z,31.07
2022-08-03T11:31:48.133Z,31.24
2022-08-03T11:34:13.305Z,31.43
2022-08-03T11:37:27.482Z,31.40
2022-08-03T11:39:57.084Z,31.52
2022-08-03T11:42:24.427Z,31.35
2022-08-03T11:44:54.360Z,31.24
2022-08-03T11:47:24.233Z,31.28
2022-08-03T11:49:55.120Z,30.86
2022-08-03T11:52:27.123Z,30.65
2022-08-03T11:54:56.406Z,30.91
2022-08-03T11:59:16.886Z,31.23
2022-08-03T12:00:25.924Z,31.30
2022-08-03T12:03:13.638Z,31.11
2022-08-03T12:05:52.285Z,31.41
2022-08-03T12:08:28.173Z,31.61
2022-08-03T12:10:58.304Z,31.59
2022-08-03T12:14:26.889Z,31.78
2022-08-03T12:16:23.378Z,31.73
2022-08-03T12:19:01.954Z,31.65
2022-08-03T12:21:29.608Z,31.37
2022-08-03T12:24:00.206Z,31.29
2022-08-03T12:26:29.958Z,31.21
2022-08-03T12:28:58.395Z,31.26
2022-08-03T12:31:25.785Z,31.07
2022-08-03T12:34:02.661Z,31.09
2022-08-03T12:36:32.970Z,31.11
2022-08-03T12:39:09.579Z,30.99
2022-08-03T12:41:40.812Z,31.02
2022-08-03T12:44:09.942Z,31.28
2022-08-03T12:46:43.954Z,31.28
2022-08-03T12:49:18.730Z,31.34
2022-08-03T12:51:45.555Z,31.37
2022-08-03T12:54:24.168Z,31.40
2022-08-03T12:57:04.487Z,31.61
2022-08-03T12:59:41.160Z,31.70
2022-08-03T13:02:23.609Z,31.66
2022-08-03T13:04:52.892Z,31.73
2022-08-03T13:07:21.377Z,31.78
2022-08-03T13:09:55.532Z,31.65
2022-08-03T13:12:28.966Z,31.69
2022-08-03T13:14:59.305Z,31.40
2022-08-03T13:17:27.964Z,31.33
2022-08-03T13:19:54.871Z,31.32
2022-08-03T13:22:30.980Z,31.39
2022-08-03T13:24:58.263Z,31.32
2022-08-03T13:28:04.291Z,31.59
2022-08-03T13:30:17.860Z,31.49
2022-08-03T13:32:58.646Z,31.20
2022-08-03T13:35:26.091Z,31.60
2022-08-03T13:37:53.527Z,31.64
2022-08-03T13:40:23.801Z,31.62
2022-08-03T13:42:57.262Z,31.76
2022-08-03T13:45:24.835Z,32.09
2022-08-03T13:47:51.543Z,32.06
2022-08-03T13:50:18.485Z,32.07
2022-08-03T13:52:46.811Z,32.11
2022-08-03T13:55:13.551Z,31.90
2022-08-03T13:58:02.920Z,31.83
2022-08-03T14:00:29.325Z,31.74
2022-08-03T14:03:12.611Z,31.97
2022-08-03T14:05:40.970Z,32.16
2022-08-03T14:08:08.128Z,31.99
2022-08-03T14:10:39.224Z,31.99
2022-08-03T14:13:07.065Z,31.75
2022-08-03T14:15:37.542Z,31.80
2022-08-03T14:18:12.618Z,32.02
2022-08-03T14:20:48.805Z,32.07
2022-08-03T14:23:19.240Z,32.22
2022-08-03T14:25:52.068Z,32.01
2022-08-03T14:28:24.561Z,32.07
2022-08-03T14:30:53.762Z,32.01
2022-08-03T14:33:20.743Z,32.10
2022-08-03T14:35:48.208Z,32.03
2022-08-03T14:38:15.935Z,32.17
2022-08-03T14:40:44.735Z,32.25
2022-08-03T14:43:11.527Z,32.25
2022-08-03T14:45:40.470Z,32.39
2022-08-03T14:50:31.971Z,32.28
2022-08-03T14:50:55.394Z,32.50
2022-08-03T14:53:23.408Z,32.89
2022-08-03T14:55:51.858Z,33.09
2022-08-03T14:58:25.205Z,32.70
2022-08-03T15:00:54.817Z,32.38
2022-08-03T15:03:25.004Z,32.76
2022-08-03T15:05:56.850Z,33.20
2022-08-03T15:08:26.229Z,33.28
2022-08-03T15:10:54.791Z,33.43
2022-08-03T15:13:22.971Z,33.05
2022-08-03T15:15:50.128Z,32.78
2022-08-03T15:18:16.999Z,33.29
2022-08-03T15:20:45.976Z,33.50
2022-08-03T15:23:15.844Z,33.78
2022-08-03T15:26:28.962Z,33.77
2022-08-03T15:28:34.892Z,33.46
2022-08-03T15:31:05.843Z,33.39
2022-08-03T15:33:32.722Z,33.24
2022-08-03T15:36:02.280Z,32.89
2022-08-03T15:38:29.053Z,33.20
2022-08-03T15:40:56.086Z,33.71
2022-08-03T15:43:24.756Z,34.13
2022-08-03T15:46:12.780Z,33.87
2022-08-03T15:48:40.558Z,33.30
2022-08-03T15:51:08.524Z,33.15
2022-08-03T15:53:36.085Z,33.37
2022-08-03T15:56:08.017Z,33.22
2022-08-03T15:59:09.775Z,32.74
2022-08-03T16:01:26.989Z,32.77
2022-08-03T16:03:54.327Z,32.84
2022-08-03T16:06:35.404Z,33.11
2022-08-03T16:09:22.983Z,32.86
2022-08-03T16:11:55.828Z,33.21
2022-08-03T16:14:34.854Z,32.97
2022-08-03T16:17:07.318Z,32.80
2022-08-03T16:19:34.172Z,32.91
2022-08-03T16:22:03.154Z,32.59
2022-08-03T16:24:30.492Z,32.65
2022-08-03T16:26:57.256Z,33.03
2022-08-03T16:29:24.354Z,32.98
2022-08-03T16:31:52.980Z,32.49
2022-08-03T16:34:21.291Z,32.23
2022-08-03T16:36:48.086Z,32.19
2022-08-03T16:39:15.009Z,32.16
2022-08-03T16:41:53.976Z,32.30
2022-08-03T16:44:30.604Z,32.38
2022-08-03T16:46:58.906Z,32.35
2022-08-03T16:49:55.468Z,32.15
2022-08-03T16:52:13.244Z,32.05
2022-08-03T16:54:40.739Z,32.04
2022-08-03T16:57:08.622Z,32.03
2022-08-03T16:59:36.946Z,32.01
2022-08-03T17:02:10.193Z,31.96
2022-08-03T17:04:40.178Z,31.83
2022-08-03T17:07:08.838Z,31.78
2022-08-03T17:09:38.162Z,31.60
2022-08-03T17:12:10.901Z,31.58
2022-08-03T17:14:39.370Z,31.52
2022-08-03T17:17:26.466Z,31.51
2022-08-03T17:19:55.377Z,31.48
2022-08-03T17:22:31.551Z,31.50
2022-08-03T17:25:07.666Z,31.44
2022-08-03T17:28:51.021Z,31.50
2022-08-03T17:30:43.461Z,31.27
2022-08-03T17:33:20.489Z,31.15
2022-08-03T17:35:47.851Z,31.11
2022-08-03T17:38:22.427Z,31.09
2022-08-03T17:40:52.012Z,30.94
2022-08-03T17:44:13.195Z,30.65
2022-08-03T17:46:07.352Z,30.49
2022-08-03T17:48:41.476Z,30.39
2022-08-03T17:51:17.856Z,30.33
2022-08-03T17:54:18.180Z,30.26
2022-08-03T18:00:46.112Z,30.01
2022-08-03T18:06:55.658Z,29.77
2022-08-03T18:10:05.726Z,29.63
2022-08-03T18:12:27.254Z,29.57
2022-08-03T18:15:01.519Z,29.46
2022-08-03T18:17:54.978Z,29.37
2022-08-03T18:20:34.246Z,29.20
2022-08-03T18:23:10.327Z,29.05
2022-08-03T18:25:50.055Z,28.93
2022-08-03T18:28:23.298Z,28.85
2022-08-03T18:30:53.091Z,28.74
2022-08-03T18:34:19.464Z,28.64
2022-08-03T18:36:22.148Z,28.58
2022-08-03T18:39:02.653Z,28.39
2022-08-03T18:41:34.593Z,28.25
2022-08-03T18:44:08.469Z,28.15
2022-08-03T18:47:20.862Z,27.99
2022-08-03T18:50:19.076Z,27.81
2022-08-03T18:52:58.935Z,27.72
2022-08-03T18:55:35.795Z,27.71
2022-08-03T18:58:39.665Z,27.47
2022-08-03T19:02:00.022Z,27.24
2022-08-03T19:04:45.267Z,27.14
2022-08-03T19:07:22.165Z,27.04
2022-08-03T19:09:58.406Z,27.03
2022-08-03T19:12:33.840Z,26.96
2022-08-03T19:15:12.626Z,26.87
2022-08-03T19:17:50.076Z,26.71
2022-08-03T19:20:31.079Z,26.67
2022-08-03T19:22:59.837Z,26.50
2022-08-03T19:25:34.317Z,26.44
2022-08-03T19:28:06.043Z,26.33
2022-08-03T19:30:46.298Z,26.28
2022-08-03T19:33:20.856Z,26.33
2022-08-03T19:35:55.275Z,26.16
2022-08-03T19:38:28.622Z,26.16
2022-08-03T19:41:03.700Z,26.12
2022-08-03T19:43:49.423Z,26.04
2022-08-03T19:46:30.721Z,25.77
2022-08-03T19:49:16.633Z,25.66
2022-08-03T19:52:01.864Z,25.60
2022-08-03T19:55:00.396Z,25.67
2022-08-03T19:57:29.545Z,25.78
2022-08-03T19:59:57.886Z,25.78
2022-08-03T20:02:26.908Z,25.62
2022-08-03T20:04:57.399Z,25.40
2022-08-03T20:07:27.948Z,25.22
2022-08-03T20:09:56.470Z,25.24
2022-08-03T20:12:28.550Z,25.35
2022-08-03T20:14:57.921Z,25.31
2022-08-03T20:17:56.219Z,25.19
2022-08-03T20:20:18.532Z,25.07
2022-08-03T20:22:52.638Z,25.07
2022-08-03T20:25:58.473Z,25.10
2022-08-03T20:28:32.889Z,25.04
2022-08-03T20:31:00.226Z,24.85
2022-08-03T20:33:48.826Z,24.74
2022-08-03T20:36:17.805Z,24.56
2022-08-03T20:38:50.180Z,24.45
2022-08-03T20:41:19.394Z,24.49
2022-08-03T20:46:50.242Z,24.39
2022-08-03T20:49:23.554Z,24.33
2022-08-03T20:51:53.220Z,24.41
2022-08-03T20:54:30.737Z,24.34
2022-08-03T20:57:04.113Z,24.08
2022-08-03T20:59:47.126Z,24.04
2022-08-03T21:05:09.317Z,23.96
2022-08-03T21:08:07.154Z,23.99
2022-08-03T21:10:42.007Z,23.87
2022-08-03T21:12:56.491Z,29.88
2022-08-03T21:13:04.167Z,30.21
2022-08-03T21:13:07.897Z,23.95
2022-08-03T21:13:12.684Z,24.41
2022-08-03T21:13:27.822Z,23.92
2022-08-03T21:16:02.644Z,23.89
2022-08-03T21:18:47.399Z,23.78
2022-08-03T21:21:18.654Z,23.77
2022-08-03T21:23:53.354Z,23.64
2022-08-03T21:26:24.247Z,23.60
2022-08-03T21:28:55.040Z,23.68
2022-08-03T21:31:26.447Z,23.67
2022-08-03T21:34:05.862Z,23.63
2022-08-03T21:36:36.629Z,23.52
2022-08-03T21:39:08.493Z,23.57
2022-08-03T21:41:38.255Z,23.52
2022-08-03T21:44:06.946Z,23.44
2022-08-03T21:46:41.028Z,23.33
2022-08-03T21:50:07.377Z,23.29
2022-08-03T21:52:02.850Z,23.23
2022-08-03T21:54:40.847Z,23.20
2022-08-03T21:57:25.943Z,23.26
2022-08-03T22:00:00.604Z,23.11
2022-08-03T22:02:31.532Z,23.06
2022-08-03T22:04:59.376Z,22.99
2022-08-03T22:07:28.946Z,22.87
2022-08-03T22:09:58.585Z,22.81
2022-08-03T22:12:29.573Z,22.79
2022-08-03T22:15:01.109Z,22.82
2022-08-03T22:17:55.079Z,22.84
2022-08-03T22:20:19.911Z,22.87
2022-08-03T22:22:55.729Z,22.87
2022-08-03T22:25:33.342Z,22.81
2022-08-03T22:28:10.424Z,22.69
2022-08-03T22:30:38.730Z,22.58
2022-08-03T22:33:11.032Z,22.53
2022-08-03T22:35:49.163Z,22.34
2022-08-03T22:38:18.591Z,22.47
2022-08-03T22:40:50.840Z,22.51
2022-08-03T22:43:22.748Z,22.39
2022-08-03T22:46:10.338Z,22.48
2022-08-03T22:48:40.890Z,22.48
2022-08-03T22:51:10.013Z,22.44
2022-08-03T22:53:39.590Z,22.43
2022-08-03T22:56:07.160Z,22.48
2022-08-03T22:58:33.896Z,22.47
2022-08-03T23:01:11.816Z,22.31
2022-08-03T23:04:00.985Z,22.32
2022-08-03T23:06:38.596Z,22.31
2022-08-03T23:09:13.883Z,22.22
2022-08-03T23:11:45.751Z,21.95
2022-08-03T23:14:18.523Z,21.88
2022-08-03T23:16:47.475Z,21.77
2022-08-03T23:19:25.602Z,21.73
2022-08-03T23:22:02.127Z,21.90
2022-08-03T23:24:33.273Z,22.01
2022-08-03T23:27:08.212Z,22.02
2022-08-03T23:29:43.301Z,21.92
2022-08-03T23:32:12.960Z,21.96
2022-08-03T23:34:59.442Z,21.93
2022-08-03T23:37:27.030Z,21.91
2022-08-03T23:39:57.422Z,21.88
2022-08-03T23:42:25.416Z,21.80
2022-08-03T23:45:04.707Z,21.83
2022-08-03T23:47:47.287Z,21.84
2022-08-03T23:50:15.015Z,21.82
2022-08-03T23:53:09.666Z,21.81
2022-08-03T23:56:28.322Z,21.65
2022-08-03T23:59:39.502Z,21.59
